SBKG/CPV METAR and TAF weather

Enter ICAO airport designator
Station Type Date Time Source
SBKG METAR 2019/12/14 17:00 UTC NOAA

SBKG 141700Z 10013KT CAVOK 31/17 Q1013


Station Type Date Time Source
SBKG Decoded METAR 2019/12/14 17:00 UTC NOAA

Campina Grande, Brazil (SBKG) 07-13S 035-53W
Dec 14, 2019 - 12:00 PM EST / 2019.12.14 1700 UTC
Wind: from the E (100 degrees) at 15 MPH (13 KT):0
Visibility: greater than 7 mile(s):0
Temperature: 87 F (31 C)
Dew Point: 62 F (17 C)
Relative Humidity: 43%
Pressure (altimeter): 29.91 in. Hg (1013 hPa)
ob: SBKG 141700Z 10013KT CAVOK 31/17 Q1013
cycle: 17

Station Type Date Time Source
SBKG TAF 2019/12/14 12:30 UTC NOAA

TAF SBKG 141000Z 1412/1424 12013KT 9999 SCT020 TN27/1412Z TX32/1416Z
RMK PEU

Example: see airport list